Time;durP1;ratioP1;P1;durP2;ratioP2;P2;SDS_P1;SDS_P2;PMS_P1;PMS_P2;Temp;Humidity;BMP_temperature;BMP_pressure;BME280_temperature;BME280_humidity;BME280_pressure;Samples;Min_cycle;Max_cycle;Signal;HPM_P1;HPM_P2
2024/02/17 00:00:01;;;;;;;0.30;0.20;;;;;;;12.97;100.00;100983.22;5050325;28;20451;-51
2024/02/17 00:02:27;;;;;;;0.40;0.30;;;;;;;12.54;100.00;100984.34;5051448;28;20445;-51
2024/02/17 00:04:54;;;;;;;0.40;0.30;;;;;;;12.37;100.00;100991.91;5051271;28;20501;-50
2024/02/17 00:07:20;;;;;;;0.30;0.20;;;;;;;12.31;100.00;100992.91;5051367;28;20425;-50
2024/02/17 00:09:47;;;;;;;0.30;0.20;;;;;;;12.34;100.00;100992.84;5051572;28;20446;-51
2024/02/17 00:12:13;;;;;;;0.30;0.20;;;;;;;12.11;100.00;101001.41;5051294;28;20470;-51
2024/02/17 00:14:40;;;;;;;0.30;0.20;;;;;;;12.21;100.00;101002.06;5051427;28;20434;-50
2024/02/17 00:17:06;;;;;;;0.30;0.20;;;;;;;12.18;100.00;101001.22;5051449;28;20520;-50
2024/02/17 00:19:33;;;;;;;0.30;0.20;;;;;;;11.94;100.00;101000.03;5051754;28;20499;-51
2024/02/17 00:22:00;;;;;;;0.30;0.20;;;;;;;12.00;100.00;101002.53;5051207;28;20490;-51
2024/02/17 00:24:27;;;;;;;0.30;0.20;;;;;;;11.73;100.00;101004.88;5051257;28;20503;-51
2024/02/17 00:26:53;;;;;;;0.30;0.20;;;;;;;11.56;100.00;101005.25;5050958;28;20450;-50
2024/02/17 00:29:20;;;;;;;0.30;0.20;;;;;;;11.37;100.00;101005.66;5051587;28;20534;-51
2024/02/17 00:31:46;;;;;;;0.30;0.20;;;;;;;11.37;100.00;101005.66;5051231;28;20558;-51
2024/02/17 00:34:13;;;;;;;0.30;0.20;;;;;;;11.32;100.00;101008.41;5051147;28;20796;-51
2024/02/17 00:36:41;;;;;;;0.30;0.20;;;;;;;11.37;100.00;101008.31;5051158;28;20940;-51
2024/02/17 00:39:09;;;;;;;0.40;0.20;;;;;;;11.35;100.00;100996.81;5051730;28;20451;-50
2024/02/17 00:41:37;;;;;;;0.30;0.20;;;;;;;11.41;100.00;101004.69;5050926;28;20565;-51
2024/02/17 00:44:04;;;;;;;0.30;0.20;;;;;;;11.12;100.00;101011.47;5051316;28;20529;-51
2024/02/17 00:46:31;;;;;;;0.30;0.20;;;;;;;11.18;100.00;101016.66;5050939;28;20430;-51
2024/02/17 00:48:58;;;;;;;0.30;0.20;;;;;;;10.99;100.00;101028.56;5051120;28;20952;-51
2024/02/17 00:51:24;;;;;;;0.30;0.20;;;;;;;10.97;100.00;101039.25;5050875;28;20489;-51
2024/02/17 00:53:51;;;;;;;0.30;0.20;;;;;;;11.24;100.00;101037.84;5051042;28;20425;-50
2024/02/17 00:56:21;;;;;;;0.30;0.20;;;;;;;11.18;100.00;101043.28;5050879;28;20830;-50
2024/02/17 00:58:48;;;;;;;0.30;0.20;;;;;;;10.98;100.00;101045.44;5051198;28;20426;-50
2024/02/17 01:01:15;;;;;;;0.30;0.20;;;;;;;10.89;100.00;101056.22;5050723;28;20455;-50
2024/02/17 01:03:55;;;;;;;0.30;0.20;;;;;;;10.88;100.00;101058.03;5050909;28;20443;-50
2024/02/17 01:06:22;;;;;;;0.30;0.20;;;;;;;10.85;100.00;101065.19;5050842;28;20432;-50
2024/02/17 01:08:49;;;;;;;0.30;0.20;;;;;;;10.73;100.00;101066.25;5050648;28;20444;-50
2024/02/17 01:11:17;;;;;;;0.30;0.20;;;;;;;10.73;100.00;101073.38;5050867;28;20494;-51
2024/02/17 01:13:45;;;;;;;0.30;0.20;;;;;;;10.81;100.00;101079.41;5050955;28;20597;-51
2024/02/17 01:16:11;;;;;;;0.30;0.30;;;;;;;10.74;100.00;101083.09;5050750;28;20450;-50
2024/02/17 01:18:38;;;;;;;0.30;0.20;;;;;;;10.77;100.00;101086.56;5054161;28;20805;-49
2024/02/17 01:21:05;;;;;;;0.30;0.20;;;;;;;10.75;100.00;101088.38;5054348;28;20471;-50
2024/02/17 01:23:31;;;;;;;0.30;0.20;;;;;;;10.60;100.00;101085.97;5054485;28;20429;-50
2024/02/17 01:25:58;;;;;;;0.30;0.20;;;;;;;10.63;100.00;101086.78;5054490;28;20513;-50
2024/02/17 01:28:25;;;;;;;0.30;0.20;;;;;;;10.54;100.00;101094.03;5053848;28;20447;-50
2024/02/17 01:30:51;;;;;;;0.30;0.20;;;;;;;10.36;100.00;101098.72;5054144;28;20478;-50
2024/02/17 01:33:18;;;;;;;0.30;0.20;;;;;;;10.32;100.00;101091.72;5054081;28;20494;-50
2024/02/17 01:35:45;;;;;;;0.30;0.20;;;;;;;10.14;100.00;101088.38;5053902;28;20462;-50
2024/02/17 01:38:11;;;;;;;0.30;0.20;;;;;;;10.07;100.00;101095.56;5054008;28;20451;-50
2024/02/17 01:40:37;;;;;;;0.30;0.20;;;;;;;9.90;100.00;101095.81;5053992;28;20421;-50
2024/02/17 01:43:08;;;;;;;0.30;0.20;;;;;;;9.95;100.00;101101.03;5053923;28;20451;-50
2024/02/17 01:45:34;;;;;;;0.30;0.20;;;;;;;9.98;100.00;101103.66;5053976;28;20487;-50
2024/02/17 01:48:01;;;;;;;0.30;0.20;;;;;;;9.79;100.00;101109.22;5053798;28;20500;-50
2024/02/17 01:50:28;;;;;;;0.30;0.20;;;;;;;9.68;100.00;101113.75;5053617;28;20533;-52
2024/02/17 01:52:57;;;;;;;0.30;0.20;;;;;;;9.78;100.00;101115.41;5053947;28;20486;-50
2024/02/17 01:55:25;;;;;;;0.30;0.20;;;;;;;9.67;100.00;101109.34;5053916;28;20421;-50
2024/02/17 01:57:52;;;;;;;0.30;0.20;;;;;;;9.77;100.00;101120.75;5053757;28;20796;-50
2024/02/17 02:00:20;;;;;;;0.30;0.20;;;;;;;9.78;100.00;101120.72;5053826;28;20500;-51
2024/02/17 02:02:47;;;;;;;0.30;0.20;;;;;;;9.91;100.00;101118.81;5053381;28;20425;-50
2024/02/17 02:05:14;;;;;;;0.60;0.60;;;;;;;9.86;100.00;101119.75;5053465;28;20557;-50
2024/02/17 02:07:41;;;;;;;0.30;0.20;;;;;;;10.03;100.00;101126.63;5053686;28;20474;-50
2024/02/17 02:10:08;;;;;;;0.30;0.20;;;;;;;10.04;100.00;101127.50;5053435;28;20518;-49
2024/02/17 02:12:34;;;;;;;0.30;0.20;;;;;;;9.95;100.00;101127.59;5053295;28;20839;-50
2024/02/17 02:15:06;;;;;;;0.30;0.20;;;;;;;9.77;100.00;101131.38;5053388;28;20442;-50
2024/02/17 02:17:33;;;;;;;0.30;0.20;;;;;;;9.82;100.00;101131.31;5053146;28;20821;-50
2024/02/17 02:19:59;;;;;;;0.30;0.20;;;;;;;9.76;100.00;101137.59;5053581;28;20447;-51
2024/02/17 02:22:26;;;;;;;0.30;0.20;;;;;;;9.83;100.00;101133.94;5053127;28;20991;-51
2024/02/17 02:24:58;;;;;;;0.30;0.20;;;;;;;9.89;100.00;101144.50;5053157;28;20577;-51
2024/02/17 02:27:27;;;;;;;0.30;0.20;;;;;;;9.76;100.00;101143.75;5043516;28;20525;-51
2024/02/17 02:29:56;;;;;;;0.30;0.20;;;;;;;9.75;100.00;101149.09;5052879;28;20496;-50
2024/02/17 02:32:26;;;;;;;0.30;0.20;;;;;;;9.82;100.00;101148.13;5052922;28;20999;-50
2024/02/17 02:34:54;;;;;;;0.30;0.20;;;;;;;9.78;100.00;101151.72;5053206;28;20447;-51
2024/02/17 02:37:20;;;;;;;0.30;0.20;;;;;;;9.79;100.00;101153.47;5053096;28;20458;-51
2024/02/17 02:39:47;;;;;;;0.50;0.50;;;;;;;9.56;100.00;101153.72;5053025;28;20451;-51
2024/02/17 02:42:13;;;;;;;0.30;0.20;;;;;;;9.69;100.00;101162.41;5052858;28;20992;-51
2024/02/17 02:44:40;;;;;;;0.30;0.20;;;;;;;9.76;100.00;101159.69;5052587;28;21049;-51
2024/02/17 02:47:07;;;;;;;0.30;0.20;;;;;;;9.88;100.00;101160.47;5052902;28;20454;-51
2024/02/17 02:49:33;;;;;;;0.30;0.20;;;;;;;9.77;100.00;101172.06;5052781;28;20469;-49
2024/02/17 02:52:00;;;;;;;0.30;0.20;;;;;;;9.92;100.00;101178.97;5059205;23;20496;-52
2024/02/17 02:54:26;;;;;;;0.30;0.20;;;;;;;9.89;100.00;101173.72;5047250;28;20447;-53
2024/02/17 02:56:53;;;;;;;0.30;0.20;;;;;;;10.00;100.00;101169.13;5042191;28;20450;-52
2024/02/17 02:59:19;;;;;;;0.30;0.20;;;;;;;9.85;100.00;101177.28;5039558;28;20430;-51
2024/02/17 03:01:46;;;;;;;0.30;0.20;;;;;;;9.96;100.00;101174.50;5053015;28;20477;-52
2024/02/17 03:04:12;;;;;;;0.30;0.20;;;;;;;9.97;100.00;101174.47;5039576;28;20967;-52
2024/02/17 03:06:39;;;;;;;0.30;0.20;;;;;;;9.79;100.00;101177.38;5044421;28;20455;-51
2024/02/17 03:09:06;;;;;;;0.30;0.20;;;;;;;9.57;100.00;101181.13;5046341;28;20443;-52
2024/02/17 03:11:33;;;;;;;0.30;0.20;;;;;;;9.42;100.00;101188.34;5036552;28;20570;-52
2024/02/17 03:14:00;;;;;;;0.30;0.20;;;;;;;9.30;100.00;101192.88;5033042;28;20508;-52
2024/02/17 03:16:26;;;;;;;0.30;0.20;;;;;;;9.14;100.00;101187.72;5042473;28;20530;-52
2024/02/17 03:18:53;;;;;;;0.30;0.20;;;;;;;9.07;100.00;101193.97;5039279;28;20532;-52
2024/02/17 03:21:20;;;;;;;0.30;0.20;;;;;;;8.99;100.00;101201.09;5042621;28;20476;-51
2024/02/17 03:23:47;;;;;;;0.30;0.20;;;;;;;8.84;100.00;101203.84;5045687;28;20456;-52
2024/02/17 03:26:14;;;;;;;0.30;0.20;;;;;;;8.86;100.00;101210.03;5032948;28;20854;-51
2024/02/17 03:28:40;;;;;;;0.30;0.20;;;;;;;8.88;100.00;101213.53;5052619;28;20823;-52
2024/02/17 03:31:07;;;;;;;0.30;0.20;;;;;;;8.92;100.00;101211.78;5052353;28;20470;-51
2024/02/17 03:33:33;;;;;;;0.30;0.20;;;;;;;8.96;100.00;101227.63;5038825;28;20508;-52
2024/02/17 03:36:00;;;;;;;2.10;2.00;;;;;;;8.91;100.00;101218.84;5041483;28;20448;-52
2024/02/17 03:38:27;;;;;;;0.30;0.20;;;;;;;9.01;100.00;101227.59;5045762;28;20470;-52
2024/02/17 03:40:53;;;;;;;0.30;0.20;;;;;;;8.81;100.00;101239.22;5043084;28;20471;-52
2024/02/17 03:43:20;;;;;;;0.30;0.20;;;;;;;8.86;100.00;101231.22;5039022;28;20453;-52
2024/02/17 03:45:46;;;;;;;0.30;0.20;;;;;;;8.82;100.00;101234.81;5040944;28;20574;-52
2024/02/17 03:48:13;;;;;;;2.13;2.03;;;;;;;8.85;100.00;101238.31;5045477;28;20454;-52
2024/02/17 03:50:40;;;;;;;0.30;0.20;;;;;;;8.76;100.00;101250.72;5043826;28;20477;-52
2024/02/17 03:53:06;;;;;;;0.30;0.20;;;;;;;8.67;100.00;101253.44;5037228;28;20968;-52
2024/02/17 03:55:32;;;;;;;0.30;0.20;;;;;;;8.58;100.00;101263.19;5043792;28;20853;-52
2024/02/17 03:57:59;;;;;;;0.30;0.20;;;;;;;8.48;100.00;101266.75;5038661;28;20520;-51
2024/02/17 04:00:26;;;;;;;0.30;0.30;;;;;;;8.39;100.00;101266.81;5045498;28;20442;-51
2024/02/17 04:02:52;;;;;;;0.30;0.20;;;;;;;8.35;100.00;101275.66;5047077;28;20458;-52
2024/02/17 04:05:19;;;;;;;0.30;0.20;;;;;;;8.44;100.00;101282.69;5043008;28;21070;-51
2024/02/17 04:07:45;;;;;;;0.30;0.20;;;;;;;8.73;100.00;101282.56;5038445;28;20455;-52
2024/02/17 04:10:13;;;;;;;0.30;0.20;;;;;;;8.77;100.00;101284.28;5040441;28;20447;-52
2024/02/17 04:12:40;;;;;;;0.30;0.20;;;;;;;8.88;100.00;101291.31;5045155;28;20482;-51
2024/02/17 04:15:08;;;;;;;0.30;0.20;;;;;;;8.86;100.00;101302.81;5043891;28;20446;-53
2024/02/17 04:17:35;;;;;;;0.30;0.20;;;;;;;8.81;100.00;101304.63;5038917;28;20451;-52
2024/02/17 04:20:06;;;;;;;0.30;0.20;;;;;;;8.80;100.00;101305.50;5039851;28;20448;-52
2024/02/17 04:22:33;;;;;;;0.30;0.20;;;;;;;8.54;100.00;101311.81;5045034;28;20467;-51
2024/02/17 04:24:59;;;;;;;0.30;0.20;;;;;;;8.55;100.00;101317.97;5045406;28;20585;-52
2024/02/17 04:27:26;;;;;;;0.30;0.20;;;;;;;8.71;100.00;101324.09;5039321;28;20449;-52
2024/02/17 04:29:52;;;;;;;0.30;0.20;;;;;;;8.67;100.00;101331.19;5047591;28;20458;-52
2024/02/17 04:32:19;;;;;;;0.30;0.20;;;;;;;8.78;100.00;101328.50;5052175;28;20877;-52
2024/02/17 04:34:45;;;;;;;0.30;0.20;;;;;;;8.66;100.00;101333.84;5039212;28;20486;-52
2024/02/17 04:37:12;;;;;;;0.30;0.20;;;;;;;8.65;100.00;101334.75;5044470;28;20447;-52
2024/02/17 04:39:39;;;;;;;0.30;0.20;;;;;;;8.60;100.00;101337.38;5045599;28;20450;-52
2024/02/17 04:42:05;;;;;;;0.30;0.20;;;;;;;8.44;100.00;101347.16;5039678;28;20466;-52
2024/02/17 04:44:32;;;;;;;0.30;0.20;;;;;;;8.35;100.00;101351.59;5038286;28;20900;-53
2024/02/17 04:46:58;;;;;;;0.30;0.20;;;;;;;8.37;100.00;101350.72;5043721;28;20495;-52
2024/02/17 04:49:25;;;;;;;0.30;0.20;;;;;;;8.02;100.00;101348.97;5044975;28;20545;-52
2024/02/17 04:51:51;;;;;;;0.30;0.20;;;;;;;8.11;100.00;101355.16;5040746;28;20478;-52
2024/02/17 04:54:18;;;;;;;0.30;0.20;;;;;;;7.92;100.00;101355.16;5044675;28;20927;-52
2024/02/17 04:56:44;;;;;;;0.30;0.20;;;;;;;8.00;100.00;101363.97;5044250;28;20478;-52
2024/02/17 04:59:11;;;;;;;0.30;0.20;;;;;;;7.80;100.00;101360.44;5041899;28;20454;-51
2024/02/17 05:01:37;;;;;;;0.30;0.20;;;;;;;7.87;100.00;101367.53;5055536;28;20502;-52
2024/02/17 05:04:04;;;;;;;0.30;0.20;;;;;;;7.77;100.00;101368.38;5041664;28;20454;-52
2024/02/17 05:06:30;;;;;;;0.30;0.20;;;;;;;7.54;100.00;101365.75;5046524;28;20487;-51
2024/02/17 05:08:57;;;;;;;0.30;0.20;;;;;;;7.57;100.00;101372.81;5048716;28;20450;-52
2024/02/17 05:11:23;;;;;;;0.30;0.20;;;;;;;7.47;100.00;101365.72;5040016;28;20824;-50
2024/02/17 05:13:51;;;;;;;0.30;0.20;;;;;;;7.47;100.00;101365.72;5045908;28;20552;-51
2024/02/17 05:16:17;;;;;;;0.30;0.20;;;;;;;7.43;100.00;101380.72;5038272;28;20519;-50
2024/02/17 05:18:43;;;;;;;0.30;0.20;;;;;;;7.30;100.00;101378.94;5047957;28;20546;-51
2024/02/17 05:21:11;;;;;;;0.30;0.20;;;;;;;7.22;100.00;101375.38;5044688;28;21045;-50
2024/02/17 05:23:37;;;;;;;0.30;0.20;;;;;;;7.27;100.00;101378.94;5048139;28;20447;-51
2024/02/17 05:26:04;;;;;;;0.30;0.20;;;;;;;7.11;100.00;101384.13;5040039;28;20482;-51
2024/02/17 05:28:30;;;;;;;0.30;0.20;;;;;;;7.19;100.00;101392.09;5050914;28;20533;-51
2024/02/17 05:30:56;;;;;;;0.30;0.20;;;;;;;7.06;100.00;101392.94;5054649;28;20553;-51
2024/02/17 05:33:23;;;;;;;0.30;0.20;;;;;;;7.08;100.00;101388.53;5041313;28;21080;-51
2024/02/17 05:35:50;;;;;;;0.30;0.20;;;;;;;7.14;100.00;101391.22;5045007;28;20558;-50
2024/02/17 05:38:16;;;;;;;0.30;0.20;;;;;;;7.07;100.00;101400.00;5048180;28;20550;-51
2024/02/17 05:40:43;;;;;;;0.30;0.20;;;;;;;6.92;100.00;101398.19;5044127;28;20463;-51
2024/02/17 05:43:09;;;;;;;0.30;0.20;;;;;;;7.01;100.00;101406.16;5041046;28;20965;-51
2024/02/17 05:45:36;;;;;;;0.30;0.20;;;;;;;7.06;100.00;101408.81;5044363;28;20574;-52
2024/02/17 05:48:03;;;;;;;0.30;0.20;;;;;;;6.94;100.00;101416.69;5051153;28;20512;-51
2024/02/17 05:50:30;;;;;;;0.30;0.20;;;;;;;6.87;100.00;101414.91;5044082;28;20480;-51
2024/02/17 05:52:58;;;;;;;0.30;0.20;;;;;;;6.74;100.00;101414.84;5047793;28;20805;-51
2024/02/17 05:55:25;;;;;;;0.30;0.20;;;;;;;6.77;100.00;101416.63;5037454;28;20458;-51
2024/02/17 05:57:51;;;;;;;0.30;0.20;;;;;;;6.65;100.00;101425.34;5046043;28;20447;-51
2024/02/17 06:00:18;;;;;;;0.30;0.20;;;;;;;6.57;100.00;101428.81;5047154;28;20896;-51
2024/02/17 06:02:44;;;;;;;0.30;0.20;;;;;;;6.77;100.00;101429.81;5048939;28;20988;-52
2024/02/17 06:05:11;;;;;;;0.30;0.20;;;;;;;6.64;100.00;101423.59;5044999;28;20450;-51
2024/02/17 06:07:38;;;;;;;0.30;0.20;;;;;;;6.57;100.00;101429.69;5039501;28;20447;-52
2024/02/17 06:10:05;;;;;;;0.30;0.20;;;;;;;6.45;100.00;101440.22;5044175;28;20465;-51
2024/02/17 06:12:32;;;;;;;0.30;0.20;;;;;;;6.56;100.00;101438.50;5049351;28;20492;-51
2024/02/17 06:14:59;;;;;;;0.30;0.20;;;;;;;6.44;100.00;101436.69;5037915;28;20594;-51
2024/02/17 06:17:27;;;;;;;0.30;0.20;;;;;;;6.71;100.00;101433.28;5046945;28;20933;-51
2024/02/17 06:22:38;;;;;;;0.30;0.20;;;;;;;6.64;100.00;101454.41;5040678;28;20980;-51
2024/02/17 06:25:05;;;;;;;0.30;0.20;;;;;;;6.54;100.00;101456.09;5039781;28;20972;-51
2024/02/17 06:27:32;;;;;;;0.30;0.20;;;;;;;6.62;100.00;101456.16;5053438;28;20531;-51
2024/02/17 06:29:58;;;;;;;0.30;0.20;;;;;;;6.61;100.00;101464.97;5053091;28;20815;-51
2024/02/17 06:32:24;;;;;;;0.30;0.20;;;;;;;6.52;100.00;101471.94;5045143;28;20558;-51
2024/02/17 06:34:51;;;;;;;0.30;0.20;;;;;;;7.12;100.00;101474.91;5047042;28;20455;-52
2024/02/17 06:37:17;;;;;;;0.30;0.20;;;;;;;6.76;100.00;101487.06;5041056;28;20828;-51
2024/02/17 06:39:44;;;;;;;0.30;0.20;;;;;;;6.79;100.00;101492.38;5039637;28;20551;-51
2024/02/17 06:42:11;;;;;;;0.30;0.20;;;;;;;6.64;100.00;101486.09;5045150;28;20471;-51
2024/02/17 06:44:38;;;;;;;0.30;0.20;;;;;;;6.66;100.00;101498.44;5046621;28;20457;-52
2024/02/17 06:47:05;;;;;;;0.30;0.20;;;;;;;6.71;100.00;101495.81;5038969;28;20495;-52
2024/02/17 06:49:31;;;;;;;0.30;0.20;;;;;;;6.91;100.00;101509.19;5034670;28;20531;-51
2024/02/17 06:51:58;;;;;;;0.30;0.20;;;;;;;6.89;100.00;101516.22;5041960;28;20971;-51
2024/02/17 06:54:25;;;;;;;0.30;0.20;;;;;;;7.09;100.00;101514.56;5039251;28;20452;-51
2024/02/17 06:56:51;;;;;;;0.30;0.20;;;;;;;7.17;100.00;101522.53;5042378;28;20450;-50
2024/02/17 06:59:18;;;;;;;0.30;0.20;;;;;;;7.17;100.00;101527.84;5039859;28;20447;-52
2024/02/17 07:01:44;;;;;;;0.30;0.20;;;;;;;7.17;100.00;101525.19;5048664;28;20481;-51
2024/02/17 07:04:11;;;;;;;0.30;0.20;;;;;;;7.24;100.00;101535.78;5046325;28;20946;-51
2024/02/17 07:06:37;;;;;;;0.30;0.20;;;;;;;7.28;100.00;101536.72;5040812;28;20501;-51
2024/02/17 07:09:04;;;;;;;0.30;0.20;;;;;;;7.30;100.00;101541.13;5043196;28;20446;-51
2024/02/17 07:11:32;;;;;;;0.30;0.20;;;;;;;7.23;100.00;101535.78;5042178;28;21068;-51
2024/02/17 07:13:59;;;;;;;0.30;0.20;;;;;;;7.10;100.00;101546.28;5037098;28;20448;-52
2024/02/17 07:16:26;;;;;;;0.30;0.20;;;;;;;7.33;100.00;101546.44;5051798;28;20882;-51
2024/02/17 07:18:54;;;;;;;0.30;0.20;;;;;;;7.36;100.00;101543.78;5039050;28;20450;-51
2024/02/17 07:21:21;;;;;;;0.30;0.20;;;;;;;7.33;100.00;101554.34;5046705;28;20459;-51
2024/02/17 07:23:48;;;;;;;0.30;0.20;;;;;;;7.44;100.00;101554.41;5047754;28;20456;-52
2024/02/17 07:26:14;;;;;;;0.30;0.20;;;;;;;7.56;100.00;101556.25;5047072;28;20583;-52
2024/02/17 07:28:41;;;;;;;0.30;0.20;;;;;;;7.62;100.00;101559.78;5049796;28;20458;-53
2024/02/17 07:31:12;;;;;;;0.30;0.20;;;;;;;7.67;100.00;101570.38;5052749;28;20553;-52
2024/02/17 07:33:39;;;;;;;0.30;0.20;;;;;;;7.93;100.00;101579.28;5043756;28;20470;-51
2024/02/17 07:36:06;;;;;;;0.30;0.20;;;;;;;8.08;100.00;101577.56;5045219;28;20454;-51
2024/02/17 07:38:34;;;;;;;0.30;0.20;;;;;;;8.14;100.00;101577.59;5048932;28;20510;-51
2024/02/17 07:41:01;;;;;;;0.30;0.20;;;;;;;8.29;100.00;101582.91;5038201;28;20468;-52
2024/02/17 07:43:27;;;;;;;0.30;0.20;;;;;;;8.49;100.00;101580.31;5049664;28;20474;-52
2024/02/17 07:45:53;;;;;;;0.30;0.20;;;;;;;8.57;100.00;101587.41;5048455;28;20506;-52
2024/02/17 07:48:20;;;;;;;0.30;0.20;;;;;;;8.70;100.00;101595.34;5041887;28;20838;-52
2024/02/17 07:50:47;;;;;;;0.30;0.20;;;;;;;8.80;100.00;101597.13;5043007;28;20472;-52
2024/02/17 07:53:13;;;;;;;0.30;0.20;;;;;;;9.01;100.00;101610.34;5048795;28;20496;-52
2024/02/17 07:55:40;;;;;;;0.30;0.20;;;;;;;9.09;100.00;101608.59;5051257;28;20532;-52
2024/02/17 07:58:08;;;;;;;0.30;0.20;;;;;;;9.22;100.00;101611.22;5042269;28;20459;-52
2024/02/17 08:00:34;;;;;;;0.30;0.20;;;;;;;9.33;100.00;101612.09;5049037;28;20442;-52
2024/02/17 08:03:01;;;;;;;0.30;0.20;;;;;;;9.47;100.00;101619.13;5048383;28;20447;-50
2024/02/17 08:05:28;;;;;;;0.73;0.70;;;;;;;9.54;100.00;101613.78;5046843;28;20474;-51
2024/02/17 08:07:55;;;;;;;0.30;0.20;;;;;;;9.56;100.00;101619.97;5051476;28;20486;-50
2024/02/17 08:10:21;;;;;;;0.30;0.20;;;;;;;9.90;100.00;101618.97;5044393;28;20907;-50
2024/02/17 08:12:48;;;;;;;0.30;0.20;;;;;;;9.98;100.00;101621.59;5045027;28;20531;-50
2024/02/17 08:15:14;;;;;;;0.30;0.20;;;;;;;9.96;100.00;101629.56;5046944;28;20454;-50
2024/02/17 08:17:42;;;;;;;0.30;0.20;;;;;;;10.10;100.00;101635.69;5039528;28;20446;-50
2024/02/17 08:20:09;;;;;;;0.30;0.20;;;;;;;10.17;100.00;101641.00;5040361;28;20895;-50
2024/02/17 08:22:36;;;;;;;0.30;0.20;;;;;;;10.29;100.00;101648.94;5039481;28;20661;-50
2024/02/17 08:25:06;;;;;;;0.30;0.20;;;;;;;10.31;100.00;101649.81;5039466;28;20940;-50
2024/02/17 08:27:34;;;;;;;0.30;0.20;;;;;;;10.41;100.00;101653.28;5044804;28;20475;-50
2024/02/17 08:30:02;;;;;;;0.30;0.20;;;;;;;10.43;100.00;101664.81;5055706;28;20557;-50
2024/02/17 08:32:30;;;;;;;0.30;0.20;;;;;;;10.56;100.00;101654.09;5048190;28;20510;-50
2024/02/17 08:34:57;;;;;;;0.30;0.20;;;;;;;10.66;100.00;101661.09;5050693;28;20496;-50
2024/02/17 08:37:23;;;;;;;0.30;0.20;;;;;;;10.72;100.00;101675.25;5046345;28;20505;-51
2024/02/17 08:39:50;;;;;;;0.30;0.20;;;;;;;10.80;100.00;101666.31;5042802;28;20447;-50
2024/02/17 08:42:17;;;;;;;0.30;0.20;;;;;;;10.79;100.00;101671.63;5047522;28;20890;-50
2024/02/17 08:44:43;;;;;;;0.40;0.40;;;;;;;10.85;100.00;101683.13;5050323;28;20963;-50
2024/02/17 08:47:10;;;;;;;0.30;0.20;;;;;;;10.87;100.00;101675.13;5046599;28;20494;-50
2024/02/17 08:49:37;;;;;;;0.30;0.20;;;;;;;10.84;100.00;101677.84;5043720;28;20442;-50
2024/02/17 08:52:04;;;;;;;0.30;0.20;;;;;;;10.95;100.00;101684.81;5045992;28;20487;-47
2024/02/17 08:54:30;;;;;;;0.30;0.20;;;;;;;10.98;100.00;101684.81;5048629;28;20952;-48
2024/02/17 08:56:57;;;;;;;0.30;0.20;;;;;;;11.11;100.00;101690.03;5039144;28;20455;-47
2024/02/17 08:59:23;;;;;;;0.30;0.20;;;;;;;11.09;100.00;101692.69;5048290;28;20878;-46
2024/02/17 09:01:49;;;;;;;0.30;0.20;;;;;;;11.19;100.00;101698.81;5051378;28;20477;-49
2024/02/17 09:04:16;;;;;;;0.30;0.20;;;;;;;11.19;100.00;101697.03;5041229;28;20478;-47
2024/02/17 09:06:42;;;;;;;1.43;1.33;;;;;;;11.23;100.00;101700.56;5045021;28;20576;-47
2024/02/17 09:09:09;;;;;;;0.30;0.20;;;;;;;11.32;100.00;101702.25;5048316;28;20469;-47
2024/02/17 09:11:36;;;;;;;0.30;0.20;;;;;;;11.37;100.00;101706.63;5045056;28;20463;-47
2024/02/17 09:14:03;;;;;;;0.30;0.20;;;;;;;11.34;100.00;101703.13;5041217;28;20454;-47
2024/02/17 09:16:29;;;;;;;0.30;0.20;;;;;;;11.44;100.00;101700.38;5044489;28;20502;-47
2024/02/17 09:18:56;;;;;;;22.33;3.80;;;;;;;11.58;100.00;101703.78;5048086;28;20422;-48
2024/02/17 09:21:22;;;;;;;0.30;0.20;;;;;;;11.57;100.00;101704.69;5045502;28;20470;-47
2024/02/17 09:23:49;;;;;;;0.30;0.20;;;;;;;11.63;100.00;101698.41;5041205;28;20425;-47
2024/02/17 09:26:15;;;;;;;0.50;0.50;;;;;;;11.84;100.00;101700.00;5043426;28;20574;-48
2024/02/17 09:28:42;;;;;;;0.30;0.20;;;;;;;11.82;100.00;101707.13;5051944;28;20453;-50
2024/02/17 09:31:08;;;;;;;0.40;0.40;;;;;;;11.95;100.00;101714.09;5054420;28;20441;-48
2024/02/17 09:33:37;;;;;;;0.30;0.20;;;;;;;12.17;100.00;101709.38;5049774;28;20485;-48
2024/02/17 09:36:04;;;;;;;0.30;0.20;;;;;;;12.09;100.00;101712.16;5046204;28;20448;-48
2024/02/17 09:38:31;;;;;;;0.30;0.20;;;;;;;12.10;100.00;101711.25;5039666;28;20531;-46
2024/02/17 09:40:57;;;;;;;0.30;0.20;;;;;;;12.19;100.00;101718.22;5042393;28;21050;-47
2024/02/17 09:43:25;;;;;;;0.30;0.20;;;;;;;12.45;100.00;101720.56;5047495;28;20430;-47
2024/02/17 09:45:51;;;;;;;0.30;0.20;;;;;;;12.29;100.00;101717.22;5046067;28;20486;-47
2024/02/17 09:48:20;;;;;;;0.30;0.20;;;;;;;12.23;100.00;101719.97;5040618;28;20569;-49
2024/02/17 09:50:49;;;;;;;0.30;0.20;;;;;;;12.55;100.00;101727.56;5041852;28;20474;-47
2024/02/17 09:53:17;;;;;;;0.30;0.20;;;;;;;12.44;100.00;101725.03;5047513;28;20547;-47
2024/02/17 09:55:46;;;;;;;0.30;0.20;;;;;;;12.56;100.00;101728.44;5045966;28;20939;-47
2024/02/17 09:58:13;;;;;;;0.30;0.20;;;;;;;12.55;100.00;101730.22;5040832;28;20450;-47
2024/02/17 10:00:39;;;;;;;0.30;0.20;;;;;;;12.74;99.78;101731.72;5047734;28;20475;-47
2024/02/17 10:03:07;;;;;;;0.30;0.20;;;;;;;12.79;99.06;101730.78;5033906;28;20431;-47
2024/02/17 10:05:35;;;;;;;0.30;0.20;;;;;;;12.90;98.94;101731.53;5047435;28;20896;-47
2024/02/17 10:08:04;;;;;;;0.30;0.20;;;;;;;12.87;99.14;101743.09;5040716;28;21087;-47
2024/02/17 10:10:31;;;;;;;0.30;0.20;;;;;;;12.90;99.16;101753.75;5040347;28;21019;-47
2024/02/17 10:12:58;;;;;;;0.30;0.20;;;;;;;12.76;98.47;101750.41;5046152;28;20426;-47
2024/02/17 10:15:25;;;;;;;0.30;0.20;;;;;;;12.82;98.20;101760.09;5046848;28;20516;-48
2024/02/17 10:17:54;;;;;;;0.30;0.20;;;;;;;12.75;98.08;101760.19;5041933;28;20443;-49
2024/02/17 10:20:21;;;;;;;0.30;0.20;;;;;;;12.92;98.34;101753.72;5040058;28;20889;-47
2024/02/17 10:22:48;;;;;;;0.30;0.20;;;;;;;12.94;98.07;101754.56;5045324;28;20964;-50
2024/02/17 10:25:15;;;;;;;0.30;0.20;;;;;;;13.09;98.41;101757.00;5046982;28;20433;-49
2024/02/17 10:27:43;;;;;;;0.47;0.47;;;;;;;13.24;96.63;101759.47;5042819;28;20478;-48
2024/02/17 10:30:12;;;;;;;0.30;0.20;;;;;;;13.15;98.12;101762.25;5053457;28;20445;-49
2024/02/17 10:32:39;;;;;;;0.30;0.20;;;;;;;13.00;96.53;101768.69;5053212;28;20441;-50
2024/02/17 10:35:09;;;;;;;0.30;0.20;;;;;;;13.03;97.27;101768.69;5039807;28;20562;-48
2024/02/17 10:37:40;;;;;;;0.30;0.20;;;;;;;13.37;96.79;101775.31;5042661;28;21024;-48
2024/02/17 10:40:09;;;;;;;0.30;0.20;;;;;;;13.16;96.75;101780.06;5046824;28;20422;-47
2024/02/17 10:42:36;;;;;;;0.30;0.20;;;;;;;13.16;95.95;101785.41;5044467;28;20445;-49
2024/02/17 10:45:03;;;;;;;0.30;0.20;;;;;;;13.11;96.38;101787.25;5039557;28;20454;-46
2024/02/17 10:47:36;;;;;;;0.30;0.20;;;;;;;13.31;96.53;101786.97;5041454;28;20896;-48
2024/02/17 10:50:09;;;;;;;0.30;0.20;;;;;;;13.73;95.69;101793.41;5046044;28;20440;-47
2024/02/17 10:52:44;;;;;;;0.30;0.20;;;;;;;13.58;94.88;101796.34;5046207;28;20479;-47
2024/02/17 10:55:13;;;;;;;0.30;0.20;;;;;;;13.74;93.89;101804.97;5041269;28;20425;-48
2024/02/17 10:57:52;;;;;;;0.30;0.20;;;;;;;13.49;94.99;101796.47;5047449;28;20451;-47
2024/02/17 11:00:20;;;;;;;0.30;0.20;;;;;;;13.37;95.12;101797.56;5042767;28;20421;-47
2024/02/17 11:03:01;;;;;;;0.30;0.20;;;;;;;13.36;95.16;101801.13;5049250;28;20826;-47
2024/02/17 11:05:29;;;;;;;0.30;0.20;;;;;;;13.40;95.36;101801.97;5045416;28;20421;-48
2024/02/17 11:07:57;;;;;;;0.30;0.20;;;;;;;13.46;95.35;101805.44;5039353;28;20581;-47
2024/02/17 11:10:28;;;;;;;0.30;0.20;;;;;;;13.56;94.79;101804.34;5039648;28;20817;-47
2024/02/17 11:12:55;;;;;;;0.30;0.20;;;;;;;13.64;94.68;101810.47;5039710;28;20851;-49
2024/02/17 11:15:23;;;;;;;0.30;0.20;;;;;;;13.70;94.77;101806.78;5039051;28;20998;-48
2024/02/17 11:17:56;;;;;;;0.30;0.20;;;;;;;13.64;94.65;101810.47;5045374;28;20447;-48
2024/02/17 11:20:25;;;;;;;0.30;0.20;;;;;;;14.20;93.28;101805.88;5045602;28;20932;-47
2024/02/17 11:22:57;;;;;;;0.30;0.20;;;;;;;14.18;93.33;101801.47;5041495;28;20902;-47